sensor_id;sensor_type;location;lat;lon;timestamp;P1;durP1;ratioP1;P2;durP2;ratioP2
43150;SDS011;28755;51.478;5.702;2022-08-11T00:01:16;8.55;;;2.83;;
43150;SDS011;28755;51.478;5.702;2022-08-11T00:03:53;7.97;;;2.55;;
43150;SDS011;28755;51.478;5.702;2022-08-11T00:06:35;4.40;;;2.28;;
43150;SDS011;28755;51.478;5.702;2022-08-11T00:09:03;10.70;;;2.60;;
43150;SDS011;28755;51.478;5.702;2022-08-11T00:11:34;6.43;;;2.30;;
43150;SDS011;28755;51.478;5.702;2022-08-11T00:14:17;5.65;;;2.60;;
43150;SDS011;28755;51.478;5.702;2022-08-11T00:16:52;4.57;;;2.25;;
43150;SDS011;28755;51.478;5.702;2022-08-11T00:19:24;5.10;;;2.47;;
43150;SDS011;28755;51.478;5.702;2022-08-11T00:21:53;4.43;;;2.28;;
43150;SDS011;28755;51.478;5.702;2022-08-11T00:24:20;5.30;;;2.70;;
43150;SDS011;28755;51.478;5.702;2022-08-11T00:26:50;10.65;;;2.50;;
43150;SDS011;28755;51.478;5.702;2022-08-11T00:29:17;5.13;;;2.88;;
43150;SDS011;28755;51.478;5.702;2022-08-11T00:31:48;5.88;;;2.65;;
43150;SDS011;28755;51.478;5.702;2022-08-11T00:34:17;7.30;;;2.33;;
43150;SDS011;28755;51.478;5.702;2022-08-11T00:36:56;6.90;;;2.30;;
43150;SDS011;28755;51.478;5.702;2022-08-11T00:39:41;5.95;;;2.50;;
43150;SDS011;28755;51.478;5.702;2022-08-11T00:42:15;4.32;;;2.67;;
43150;SDS011;28755;51.478;5.702;2022-08-11T00:50:41;4.65;;;2.40;;
43150;SDS011;28755;51.478;5.702;2022-08-11T01:15:18;4.68;;;2.42;;
43150;SDS011;28755;51.478;5.702;2022-08-11T01:46:56;8.02;;;3.05;;
43150;SDS011;28755;51.478;5.702;2022-08-11T01:50:12;7.03;;;3.33;;
43150;SDS011;28755;51.478;5.702;2022-08-11T01:52:54;7.97;;;3.10;;
43150;SDS011;28755;51.478;5.702;2022-08-11T01:55:32;6.72;;;2.97;;
43150;SDS011;28755;51.478;5.702;2022-08-11T01:58:12;6.22;;;3.55;;
43150;SDS011;28755;51.478;5.702;2022-08-11T02:00:47;5.55;;;3.00;;
43150;SDS011;28755;51.478;5.702;2022-08-11T02:11:32;6.35;;;3.25;;
43150;SDS011;28755;51.478;5.702;2022-08-11T02:37:12;9.15;;;3.70;;
43150;SDS011;28755;51.478;5.702;2022-08-11T02:54:10;7.95;;;3.58;;
43150;SDS011;28755;51.478;5.702;2022-08-11T02:57:15;9.10;;;3.03;;
43150;SDS011;28755;51.478;5.702;2022-08-11T03:00:08;4.50;;;3.10;;
43150;SDS011;28755;51.478;5.702;2022-08-11T03:05:43;4.88;;;3.63;;
43150;SDS011;28755;51.478;5.702;2022-08-11T03:09:23;8.63;;;3.40;;
43150;SDS011;28755;51.478;5.702;2022-08-11T03:22:51;9.38;;;3.90;;
43150;SDS011;28755;51.478;5.702;2022-08-11T03:28:28;8.50;;;3.58;;
43150;SDS011;28755;51.478;5.702;2022-08-11T03:34:23;7.82;;;4.30;;
43150;SDS011;28755;51.478;5.702;2022-08-11T03:42:42;7.90;;;3.40;;
43150;SDS011;28755;51.478;5.702;2022-08-11T03:45:24;8.02;;;3.85;;
43150;SDS011;28755;51.478;5.702;2022-08-11T04:28:20;8.50;;;4.40;;
43150;SDS011;28755;51.478;5.702;2022-08-11T04:31:04;12.48;;;4.20;;
43150;SDS011;28755;51.478;5.702;2022-08-11T04:33:52;7.50;;;3.67;;
43150;SDS011;28755;51.478;5.702;2022-08-11T04:45:51;8.95;;;4.43;;
43150;SDS011;28755;51.478;5.702;2022-08-11T04:51:36;11.23;;;4.63;;
43150;SDS011;28755;51.478;5.702;2022-08-11T05:03:42;5.15;;;4.05;;
43150;SDS011;28755;51.478;5.702;2022-08-11T05:09:41;8.82;;;4.15;;
43150;SDS011;28755;51.478;5.702;2022-08-11T05:15:17;8.07;;;4.18;;
43150;SDS011;28755;51.478;5.702;2022-08-11T05:18:18;7.32;;;4.25;;
43150;SDS011;28755;51.478;5.702;2022-08-11T05:21:10;8.55;;;4.13;;
43150;SDS011;28755;51.478;5.702;2022-08-11T05:24:04;9.75;;;4.30;;
43150;SDS011;28755;51.478;5.702;2022-08-11T05:27:02;8.90;;;4.32;;
43150;SDS011;28755;51.478;5.702;2022-08-11T05:30:00;9.98;;;4.35;;
43150;SDS011;28755;51.478;5.702;2022-08-11T05:33:09;8.35;;;4.53;;
43150;SDS011;28755;51.478;5.702;2022-08-11T05:36:16;8.23;;;4.53;;
43150;SDS011;28755;51.478;5.702;2022-08-11T05:38:58;5.45;;;4.38;;
43150;SDS011;28755;51.478;5.702;2022-08-11T05:41:46;8.95;;;4.65;;
43150;SDS011;28755;51.478;5.702;2022-08-11T05:44:31;11.27;;;4.90;;
43150;SDS011;28755;51.478;5.702;2022-08-11T05:47:20;11.73;;;5.45;;
43150;SDS011;28755;51.478;5.702;2022-08-11T05:50:09;12.52;;;4.30;;
43150;SDS011;28755;51.478;5.702;2022-08-11T05:52:54;11.45;;;4.38;;
43150;SDS011;28755;51.478;5.702;2022-08-11T05:55:42;9.15;;;4.50;;
43150;SDS011;28755;51.478;5.702;2022-08-11T05:58:33;13.68;;;4.85;;
43150;SDS011;28755;51.478;5.702;2022-08-11T06:01:00;11.00;;;4.80;;
43150;SDS011;28755;51.478;5.702;2022-08-11T06:03:27;10.45;;;5.10;;
43150;SDS011;28755;51.478;5.702;2022-08-11T06:05:55;7.25;;;4.88;;
43150;SDS011;28755;51.478;5.702;2022-08-11T06:08:29;8.10;;;5.18;;
43150;SDS011;28755;51.478;5.702;2022-08-11T06:11:03;9.57;;;5.10;;
43150;SDS011;28755;51.478;5.702;2022-08-11T06:13:30;9.73;;;5.53;;
43150;SDS011;28755;51.478;5.702;2022-08-11T06:16:00;6.55;;;5.40;;
43150;SDS011;28755;51.478;5.702;2022-08-11T06:18:26;11.32;;;5.05;;
43150;SDS011;28755;51.478;5.702;2022-08-11T06:20:54;8.95;;;5.47;;
43150;SDS011;28755;51.478;5.702;2022-08-11T06:23:23;8.25;;;4.65;;
43150;SDS011;28755;51.478;5.702;2022-08-11T06:25:55;8.32;;;5.00;;
43150;SDS011;28755;51.478;5.702;2022-08-11T06:28:30;12.75;;;4.85;;
43150;SDS011;28755;51.478;5.702;2022-08-11T06:30:57;7.35;;;4.55;;
43150;SDS011;28755;51.478;5.702;2022-08-11T06:33:32;6.05;;;4.32;;
43150;SDS011;28755;51.478;5.702;2022-08-11T06:41:23;7.22;;;4.53;;
43150;SDS011;28755;51.478;5.702;2022-08-11T06:46:37;8.27;;;4.70;;
43150;SDS011;28755;51.478;5.702;2022-08-11T06:49:13;9.10;;;4.47;;
43150;SDS011;28755;51.478;5.702;2022-08-11T06:52:04;10.32;;;4.40;;
43150;SDS011;28755;51.478;5.702;2022-08-11T06:54:40;14.65;;;4.43;;
43150;SDS011;28755;51.478;5.702;2022-08-11T06:57:14;9.05;;;4.72;;
43150;SDS011;28755;51.478;5.702;2022-08-11T07:00:01;10.40;;;4.72;;
43150;SDS011;28755;51.478;5.702;2022-08-11T07:03:05;10.95;;;4.45;;
43150;SDS011;28755;51.478;5.702;2022-08-11T07:05:46;12.98;;;4.72;;
43150;SDS011;28755;51.478;5.702;2022-08-11T07:08:25;10.98;;;4.78;;
43150;SDS011;28755;51.478;5.702;2022-08-11T07:14:38;8.77;;;4.75;;
43150;SDS011;28755;51.478;5.702;2022-08-11T07:19:57;9.90;;;4.80;;
43150;SDS011;28755;51.478;5.702;2022-08-11T07:22:47;5.90;;;4.32;;
43150;SDS011;28755;51.478;5.702;2022-08-11T07:25:38;12.15;;;4.90;;
43150;SDS011;28755;51.478;5.702;2022-08-11T07:28:25;13.20;;;4.57;;
43150;SDS011;28755;51.478;5.702;2022-08-11T07:31:34;8.43;;;4.28;;
43150;SDS011;28755;51.478;5.702;2022-08-11T07:34:21;12.30;;;3.97;;
43150;SDS011;28755;51.478;5.702;2022-08-11T07:36:55;8.48;;;4.35;;
43150;SDS011;28755;51.478;5.702;2022-08-11T07:39:24;8.52;;;4.63;;
43150;SDS011;28755;51.478;5.702;2022-08-11T07:41:53;10.85;;;4.78;;
43150;SDS011;28755;51.478;5.702;2022-08-11T07:44:21;15.27;;;4.60;;
43150;SDS011;28755;51.478;5.702;2022-08-11T07:46:51;8.13;;;4.00;;
43150;SDS011;28755;51.478;5.702;2022-08-11T07:49:37;11.88;;;5.18;;
43150;SDS011;28755;51.478;5.702;2022-08-11T07:52:24;7.10;;;4.78;;
43150;SDS011;28755;51.478;5.702;2022-08-11T07:54:58;14.88;;;5.30;;
43150;SDS011;28755;51.478;5.702;2022-08-11T07:57:26;18.92;;;4.47;;
43150;SDS011;28755;51.478;5.702;2022-08-11T08:00:13;17.00;;;4.60;;
43150;SDS011;28755;51.478;5.702;2022-08-11T08:02:58;11.68;;;4.57;;
43150;SDS011;28755;51.478;5.702;2022-08-11T08:05:44;10.38;;;3.97;;
43150;SDS011;28755;51.478;5.702;2022-08-11T08:08:29;15.85;;;5.03;;
43150;SDS011;28755;51.478;5.702;2022-08-11T08:11:14;12.65;;;4.25;;
43150;SDS011;28755;51.478;5.702;2022-08-11T08:14:02;12.95;;;4.80;;
43150;SDS011;28755;51.478;5.702;2022-08-11T08:16:46;14.30;;;5.45;;
43150;SDS011;28755;51.478;5.702;2022-08-11T08:19:31;9.98;;;4.70;;
43150;SDS011;28755;51.478;5.702;2022-08-11T08:21:57;12.55;;;4.13;;
43150;SDS011;28755;51.478;5.702;2022-08-11T08:24:23;8.40;;;4.15;;
43150;SDS011;28755;51.478;5.702;2022-08-11T08:26:49;11.57;;;4.07;;
43150;SDS011;28755;51.478;5.702;2022-08-11T08:29:34;7.88;;;4.18;;
43150;SDS011;28755;51.478;5.702;2022-08-11T08:32:20;9.48;;;4.10;;
43150;SDS011;28755;51.478;5.702;2022-08-11T08:34:48;9.57;;;4.30;;
43150;SDS011;28755;51.478;5.702;2022-08-11T08:37:19;10.50;;;3.63;;
43150;SDS011;28755;51.478;5.702;2022-08-11T08:39:48;12.27;;;4.63;;
43150;SDS011;28755;51.478;5.702;2022-08-11T08:42:17;7.63;;;4.00;;
43150;SDS011;28755;51.478;5.702;2022-08-11T08:44:49;19.50;;;4.60;;
43150;SDS011;28755;51.478;5.702;2022-08-11T08:47:20;12.98;;;4.15;;
43150;SDS011;28755;51.478;5.702;2022-08-11T08:49:49;9.88;;;3.55;;
43150;SDS011;28755;51.478;5.702;2022-08-11T08:52:23;10.98;;;3.13;;
43150;SDS011;28755;51.478;5.702;2022-08-11T08:54:53;10.77;;;3.83;;
43150;SDS011;28755;51.478;5.702;2022-08-11T08:57:22;11.07;;;3.53;;
43150;SDS011;28755;51.478;5.702;2022-08-11T08:59:52;15.80;;;4.43;;
43150;SDS011;28755;51.478;5.702;2022-08-11T09:02:19;11.50;;;3.33;;
43150;SDS011;28755;51.478;5.702;2022-08-11T09:04:49;15.60;;;3.47;;
43150;SDS011;28755;51.478;5.702;2022-08-11T09:07:16;16.20;;;3.38;;
43150;SDS011;28755;51.478;5.702;2022-08-11T09:09:45;12.15;;;3.78;;
43150;SDS011;28755;51.478;5.702;2022-08-11T09:12:12;16.33;;;4.50;;
43150;SDS011;28755;51.478;5.702;2022-08-11T09:14:43;15.77;;;4.00;;
43150;SDS011;28755;51.478;5.702;2022-08-11T09:17:31;16.15;;;3.30;;
43150;SDS011;28755;51.478;5.702;2022-08-11T09:20:03;15.68;;;3.60;;
43150;SDS011;28755;51.478;5.702;2022-08-11T09:22:33;10.15;;;3.45;;
43150;SDS011;28755;51.478;5.702;2022-08-11T09:25:21;11.88;;;3.58;;
43150;SDS011;28755;51.478;5.702;2022-08-11T09:28:15;12.95;;;3.40;;
43150;SDS011;28755;51.478;5.702;2022-08-11T09:30:51;7.38;;;3.63;;
43150;SDS011;28755;51.478;5.702;2022-08-11T09:33:17;14.95;;;3.33;;
43150;SDS011;28755;51.478;5.702;2022-08-11T09:35:45;13.40;;;3.75;;
43150;SDS011;28755;51.478;5.702;2022-08-11T09:41:35;14.18;;;3.97;;
43150;SDS011;28755;51.478;5.702;2022-08-11T09:44:01;12.18;;;4.05;;
43150;SDS011;28755;51.478;5.702;2022-08-11T09:46:47;23.95;;;4.18;;
43150;SDS011;28755;51.478;5.702;2022-08-11T09:49:15;14.02;;;3.78;;
43150;SDS011;28755;51.478;5.702;2022-08-11T09:51:47;10.10;;;3.78;;
43150;SDS011;28755;51.478;5.702;2022-08-11T09:54:15;18.00;;;3.20;;
43150;SDS011;28755;51.478;5.702;2022-08-11T09:56:42;10.88;;;3.28;;
43150;SDS011;28755;51.478;5.702;2022-08-11T09:59:27;8.88;;;2.92;;
43150;SDS011;28755;51.478;5.702;2022-08-11T10:02:01;14.10;;;3.58;;
43150;SDS011;28755;51.478;5.702;2022-08-11T10:04:39;12.00;;;3.22;;
43150;SDS011;28755;51.478;5.702;2022-08-11T10:07:06;10.45;;;2.83;;
43150;SDS011;28755;51.478;5.702;2022-08-11T10:12:13;13.02;;;3.25;;
43150;SDS011;28755;51.478;5.702;2022-08-11T10:15:00;17.92;;;3.25;;
43150;SDS011;28755;51.478;5.702;2022-08-11T10:17:53;11.02;;;2.70;;
43150;SDS011;28755;51.478;5.702;2022-08-11T10:21:00;14.10;;;3.13;;
43150;SDS011;28755;51.478;5.702;2022-08-11T10:23:36;8.07;;;2.67;;
43150;SDS011;28755;51.478;5.702;2022-08-11T10:26:28;7.45;;;2.28;;
43150;SDS011;28755;51.478;5.702;2022-08-11T10:29:18;10.60;;;2.70;;
43150;SDS011;28755;51.478;5.702;2022-08-11T10:32:17;10.80;;;2.83;;
43150;SDS011;28755;51.478;5.702;2022-08-11T10:35:19;11.88;;;2.70;;
43150;SDS011;28755;51.478;5.702;2022-08-11T10:37:52;9.30;;;2.78;;
43150;SDS011;28755;51.478;5.702;2022-08-11T10:40:21;6.20;;;2.58;;
43150;SDS011;28755;51.478;5.702;2022-08-11T10:42:53;14.23;;;2.95;;
43150;SDS011;28755;51.478;5.702;2022-08-11T10:45:37;8.52;;;2.95;;
43150;SDS011;28755;51.478;5.702;2022-08-11T10:48:28;7.97;;;2.58;;
43150;SDS011;28755;51.478;5.702;2022-08-11T10:50:58;13.50;;;2.50;;
43150;SDS011;28755;51.478;5.702;2022-08-11T10:53:40;10.15;;;2.00;;
43150;SDS011;28755;51.478;5.702;2022-08-11T10:56:31;12.40;;;2.33;;
43150;SDS011;28755;51.478;5.702;2022-08-11T10:59:18;11.30;;;2.42;;
43150;SDS011;28755;51.478;5.702;2022-08-11T11:01:48;7.68;;;2.45;;
43150;SDS011;28755;51.478;5.702;2022-08-11T11:04:22;9.25;;;2.50;;
43150;SDS011;28755;51.478;5.702;2022-08-11T11:07:03;6.50;;;2.17;;
43150;SDS011;28755;51.478;5.702;2022-08-11T11:09:46;4.78;;;2.00;;
43150;SDS011;28755;51.478;5.702;2022-08-11T11:12:24;9.05;;;2.22;;
43150;SDS011;28755;51.478;5.702;2022-08-11T11:15:31;9.18;;;2.08;;
43150;SDS011;28755;51.478;5.702;2022-08-11T11:21:14;7.85;;;2.10;;
43150;SDS011;28755;51.478;5.702;2022-08-11T11:23:54;9.48;;;2.30;;
43150;SDS011;28755;51.478;5.702;2022-08-11T11:32:26;9.00;;;2.05;;
43150;SDS011;28755;51.478;5.702;2022-08-11T11:35:10;4.47;;;2.20;;
43150;SDS011;28755;51.478;5.702;2022-08-11T11:37:45;9.20;;;2.20;;
43150;SDS011;28755;51.478;5.702;2022-08-11T11:40:15;8.73;;;2.58;;
43150;SDS011;28755;51.478;5.702;2022-08-11T11:42:50;6.72;;;2.30;;
43150;SDS011;28755;51.478;5.702;2022-08-11T11:45:21;7.13;;;2.47;;
43150;SDS011;28755;51.478;5.702;2022-08-11T11:47:50;13.43;;;2.60;;
43150;SDS011;28755;51.478;5.702;2022-08-11T11:50:22;4.05;;;2.00;;
43150;SDS011;28755;51.478;5.702;2022-08-11T11:52:51;8.48;;;2.40;;
43150;SDS011;28755;51.478;5.702;2022-08-11T11:55:20;10.35;;;2.05;;
43150;SDS011;28755;51.478;5.702;2022-08-11T11:57:48;6.63;;;2.35;;
43150;SDS011;28755;51.478;5.702;2022-08-11T12:00:33;6.70;;;2.30;;
43150;SDS011;28755;51.478;5.702;2022-08-11T12:03:17;12.80;;;2.38;;
43150;SDS011;28755;51.478;5.702;2022-08-11T12:05:45;7.80;;;2.60;;
43150;SDS011;28755;51.478;5.702;2022-08-11T12:08:11;5.82;;;2.28;;
43150;SDS011;28755;51.478;5.702;2022-08-11T12:10:50;6.40;;;2.30;;
43150;SDS011;28755;51.478;5.702;2022-08-11T12:13:39;9.25;;;2.50;;
43150;SDS011;28755;51.478;5.702;2022-08-11T12:16:09;4.85;;;2.30;;
43150;SDS011;28755;51.478;5.702;2022-08-11T12:18:35;8.20;;;2.15;;
43150;SDS011;28755;51.478;5.702;2022-08-11T12:21:02;7.32;;;2.70;;
43150;SDS011;28755;51.478;5.702;2022-08-11T12:23:30;6.43;;;2.45;;
43150;SDS011;28755;51.478;5.702;2022-08-11T12:26:15;5.25;;;2.30;;
43150;SDS011;28755;51.478;5.702;2022-08-11T12:29:01;10.10;;;2.38;;
43150;SDS011;28755;51.478;5.702;2022-08-11T12:31:29;6.65;;;2.40;;
43150;SDS011;28755;51.478;5.702;2022-08-11T12:34:03;9.48;;;2.30;;
43150;SDS011;28755;51.478;5.702;2022-08-11T12:36:37;9.50;;;3.95;;
43150;SDS011;28755;51.478;5.702;2022-08-11T12:39:20;8.02;;;2.60;;
43150;SDS011;28755;51.478;5.702;2022-08-11T12:42:12;7.03;;;2.45;;
43150;SDS011;28755;51.478;5.702;2022-08-11T12:44:59;10.95;;;2.55;;
43150;SDS011;28755;51.478;5.702;2022-08-11T12:47:49;13.73;;;2.42;;
43150;SDS011;28755;51.478;5.702;2022-08-11T12:50:36;5.90;;;2.20;;
43150;SDS011;28755;51.478;5.702;2022-08-11T12:53:22;17.77;;;3.40;;
43150;SDS011;28755;51.478;5.702;2022-08-11T12:55:52;7.28;;;2.20;;
43150;SDS011;28755;51.478;5.702;2022-08-11T12:58:44;7.00;;;2.13;;
43150;SDS011;28755;51.478;5.702;2022-08-11T13:01:13;8.40;;;2.10;;
43150;SDS011;28755;51.478;5.702;2022-08-11T13:03:59;6.00;;;1.80;;
43150;SDS011;28755;51.478;5.702;2022-08-11T13:06:43;9.75;;;2.20;;
43150;SDS011;28755;51.478;5.702;2022-08-11T13:09:09;8.25;;;2.40;;
43150;SDS011;28755;51.478;5.702;2022-08-11T13:11:37;7.88;;;2.22;;
43150;SDS011;28755;51.478;5.702;2022-08-11T13:14:24;5.50;;;2.30;;
43150;SDS011;28755;51.478;5.702;2022-08-11T13:16:51;12.90;;;2.78;;
43150;SDS011;28755;51.478;5.702;2022-08-11T13:19:43;9.88;;;2.17;;
43150;SDS011;28755;51.478;5.702;2022-08-11T13:22:10;6.60;;;1.90;;
43150;SDS011;28755;51.478;5.702;2022-08-11T13:24:37;8.32;;;2.20;;
43150;SDS011;28755;51.478;5.702;2022-08-11T13:27:04;5.60;;;2.20;;
43150;SDS011;28755;51.478;5.702;2022-08-11T13:29:30;6.65;;;2.25;;
43150;SDS011;28755;51.478;5.702;2022-08-11T13:31:58;7.97;;;2.20;;
43150;SDS011;28755;51.478;5.702;2022-08-11T13:34:25;20.52;;;2.50;;
43150;SDS011;28755;51.478;5.702;2022-08-11T13:36:54;2.95;;;1.80;;
43150;SDS011;28755;51.478;5.702;2022-08-11T13:39:24;7.32;;;2.30;;
43150;SDS011;28755;51.478;5.702;2022-08-11T13:41:53;10.38;;;2.25;;
43150;SDS011;28755;51.478;5.702;2022-08-11T13:44:20;6.63;;;2.63;;
43150;SDS011;28755;51.478;5.702;2022-08-11T13:46:48;4.80;;;2.10;;
43150;SDS011;28755;51.478;5.702;2022-08-11T13:49:15;6.95;;;2.15;;
43150;SDS011;28755;51.478;5.702;2022-08-11T13:51:43;8.52;;;2.22;;
43150;SDS011;28755;51.478;5.702;2022-08-11T13:54:10;5.40;;;2.50;;
43150;SDS011;28755;51.478;5.702;2022-08-11T13:56:43;7.75;;;2.33;;
43150;SDS011;28755;51.478;5.702;2022-08-11T13:59:12;8.40;;;2.38;;
43150;SDS011;28755;51.478;5.702;2022-08-11T14:01:41;7.43;;;2.80;;
43150;SDS011;28755;51.478;5.702;2022-08-11T14:04:13;10.85;;;2.47;;
43150;SDS011;28755;51.478;5.702;2022-08-11T14:06:49;14.18;;;2.95;;
43150;SDS011;28755;51.478;5.702;2022-08-11T14:09:19;10.60;;;2.58;;
43150;SDS011;28755;51.478;5.702;2022-08-11T14:11:50;40.28;;;3.90;;
43150;SDS011;28755;51.478;5.702;2022-08-11T14:14:39;22.52;;;3.60;;
43150;SDS011;28755;51.478;5.702;2022-08-11T14:17:07;8.15;;;2.40;;
43150;SDS011;28755;51.478;5.702;2022-08-11T14:19:40;9.15;;;2.65;;
43150;SDS011;28755;51.478;5.702;2022-08-11T14:22:08;120.78;;;13.18;;
43150;SDS011;28755;51.478;5.702;2022-08-11T14:24:40;28.95;;;5.63;;
43150;SDS011;28755;51.478;5.702;2022-08-11T14:27:12;12.00;;;2.63;;
43150;SDS011;28755;51.478;5.702;2022-08-11T14:29:39;40.50;;;6.50;;
43150;SDS011;28755;51.478;5.702;2022-08-11T14:32:09;5.30;;;2.58;;
43150;SDS011;28755;51.478;5.702;2022-08-11T14:34:38;4.95;;;2.60;;
43150;SDS011;28755;51.478;5.702;2022-08-11T14:37:07;10.80;;;3.20;;
43150;SDS011;28755;51.478;5.702;2022-08-11T14:39:43;14.77;;;2.83;;
43150;SDS011;28755;51.478;5.702;2022-08-11T14:42:16;19.73;;;4.30;;
43150;SDS011;28755;51.478;5.702;2022-08-11T14:45:03;50.35;;;6.63;;
43150;SDS011;28755;51.478;5.702;2022-08-11T14:47:51;9.55;;;2.38;;
43150;SDS011;28755;51.478;5.702;2022-08-11T14:50:22;8.27;;;2.70;;
43150;SDS011;28755;51.478;5.702;2022-08-11T14:52:59;7.28;;;2.53;;
43150;SDS011;28755;51.478;5.702;2022-08-11T14:55:31;8.27;;;2.55;;
43150;SDS011;28755;51.478;5.702;2022-08-11T14:58:20;9.65;;;2.30;;
43150;SDS011;28755;51.478;5.702;2022-08-11T15:00:51;5.60;;;1.98;;
43150;SDS011;28755;51.478;5.702;2022-08-11T15:03:18;10.13;;;2.78;;
43150;SDS011;28755;51.478;5.702;2022-08-11T15:05:47;6.18;;;2.88;;
43150;SDS011;28755;51.478;5.702;2022-08-11T15:10:41;5.75;;;2.10;;
43150;SDS011;28755;51.478;5.702;2022-08-11T15:13:08;8.23;;;2.97;;
43150;SDS011;28755;51.478;5.702;2022-08-11T15:15:34;6.30;;;2.38;;
43150;SDS011;28755;51.478;5.702;2022-08-11T15:18:20;9.32;;;2.65;;
43150;SDS011;28755;51.478;5.702;2022-08-11T15:20:49;5.07;;;2.33;;
43150;SDS011;28755;51.478;5.702;2022-08-11T15:23:33;5.65;;;2.28;;
43150;SDS011;28755;51.478;5.702;2022-08-11T15:26:22;4.72;;;2.20;;
43150;SDS011;28755;51.478;5.702;2022-08-11T15:29:13;4.43;;;1.90;;
43150;SDS011;28755;51.478;5.702;2022-08-11T15:32:01;5.15;;;2.25;;
43150;SDS011;28755;51.478;5.702;2022-08-11T15:34:46;3.80;;;2.00;;
43150;SDS011;28755;51.478;5.702;2022-08-11T15:43:13;6.53;;;2.10;;
43150;SDS011;28755;51.478;5.702;2022-08-11T15:49:03;5.25;;;2.03;;
43150;SDS011;28755;51.478;5.702;2022-08-11T15:51:36;14.32;;;3.00;;
43150;SDS011;28755;51.478;5.702;2022-08-11T15:54:13;10.10;;;2.38;;
43150;SDS011;28755;51.478;5.702;2022-08-11T15:56:45;15.07;;;2.10;;
43150;SDS011;28755;51.478;5.702;2022-08-11T15:59:15;12.25;;;2.30;;
43150;SDS011;28755;51.478;5.702;2022-08-11T16:02:01;6.57;;;2.25;;
43150;SDS011;28755;51.478;5.702;2022-08-11T16:04:47;5.28;;;1.90;;
43150;SDS011;28755;51.478;5.702;2022-08-11T16:07:18;5.55;;;2.00;;
43150;SDS011;28755;51.478;5.702;2022-08-11T16:12:21;58.65;;;4.18;;
43150;SDS011;28755;51.478;5.702;2022-08-11T16:14:53;8.82;;;2.30;;
43150;SDS011;28755;51.478;5.702;2022-08-11T16:17:43;4.93;;;1.65;;
43150;SDS011;28755;51.478;5.702;2022-08-11T16:20:13;10.73;;;2.10;;
43150;SDS011;28755;51.478;5.702;2022-08-11T16:22:43;29.63;;;3.95;;
43150;SDS011;28755;51.478;5.702;2022-08-11T16:25:12;5.97;;;1.95;;
43150;SDS011;28755;51.478;5.702;2022-08-11T16:27:42;4.22;;;1.77;;
43150;SDS011;28755;51.478;5.702;2022-08-11T16:30:11;8.27;;;2.03;;
43150;SDS011;28755;51.478;5.702;2022-08-11T16:32:39;7.95;;;2.05;;
43150;SDS011;28755;51.478;5.702;2022-08-11T16:35:09;5.75;;;1.88;;
43150;SDS011;28755;51.478;5.702;2022-08-11T16:37:57;5.93;;;1.85;;
43150;SDS011;28755;51.478;5.702;2022-08-11T16:40:43;13.38;;;2.50;;
43150;SDS011;28755;51.478;5.702;2022-08-11T16:43:12;5.88;;;1.90;;
43150;SDS011;28755;51.478;5.702;2022-08-11T16:46:14;6.43;;;2.17;;
43150;SDS011;28755;51.478;5.702;2022-08-11T16:49:03;3.40;;;1.80;;
43150;SDS011;28755;51.478;5.702;2022-08-11T16:51:36;6.88;;;2.00;;
43150;SDS011;28755;51.478;5.702;2022-08-11T16:54:02;3.30;;;1.90;;
43150;SDS011;28755;51.478;5.702;2022-08-11T16:56:32;5.88;;;2.10;;
43150;SDS011;28755;51.478;5.702;2022-08-11T16:59:06;7.45;;;1.90;;
43150;SDS011;28755;51.478;5.702;2022-08-11T17:01:45;7.07;;;2.17;;
43150;SDS011;28755;51.478;5.702;2022-08-11T17:07:13;5.00;;;1.77;;
43150;SDS011;28755;51.478;5.702;2022-08-11T17:09:41;10.50;;;2.00;;
43150;SDS011;28755;51.478;5.702;2022-08-11T17:12:29;2.58;;;1.85;;
43150;SDS011;28755;51.478;5.702;2022-08-11T17:15:17;6.00;;;1.90;;
43150;SDS011;28755;51.478;5.702;2022-08-11T17:18:05;7.15;;;2.15;;
43150;SDS011;28755;51.478;5.702;2022-08-11T17:20:33;6.00;;;1.70;;
43150;SDS011;28755;51.478;5.702;2022-08-11T17:23:02;5.32;;;1.85;;
43150;SDS011;28755;51.478;5.702;2022-08-11T17:25:49;3.88;;;1.60;;
43150;SDS011;28755;51.478;5.702;2022-08-11T17:28:16;4.90;;;1.92;;
43150;SDS011;28755;51.478;5.702;2022-08-11T17:30:44;4.15;;;1.90;;
43150;SDS011;28755;51.478;5.702;2022-08-11T17:33:30;6.75;;;1.90;;
43150;SDS011;28755;51.478;5.702;2022-08-11T17:36:16;9.35;;;1.88;;
43150;SDS011;28755;51.478;5.702;2022-08-11T17:38:44;5.90;;;1.92;;
43150;SDS011;28755;51.478;5.702;2022-08-11T17:41:12;5.78;;;2.42;;
43150;SDS011;28755;51.478;5.702;2022-08-11T17:43:59;8.38;;;1.85;;
43150;SDS011;28755;51.478;5.702;2022-08-11T17:46:44;10.10;;;2.08;;
43150;SDS011;28755;51.478;5.702;2022-08-11T17:49:31;10.38;;;1.90;;
43150;SDS011;28755;51.478;5.702;2022-08-11T17:52:01;6.68;;;1.80;;
43150;SDS011;28755;51.478;5.702;2022-08-11T17:54:48;4.30;;;2.00;;
43150;SDS011;28755;51.478;5.702;2022-08-11T17:57:34;7.38;;;2.08;;
43150;SDS011;28755;51.478;5.702;2022-08-11T18:00:20;5.55;;;2.40;;
43150;SDS011;28755;51.478;5.702;2022-08-11T18:02:46;5.65;;;1.98;;
43150;SDS011;28755;51.478;5.702;2022-08-11T18:05:32;3.42;;;1.90;;
43150;SDS011;28755;51.478;5.702;2022-08-11T18:08:04;4.28;;;1.90;;
43150;SDS011;28755;51.478;5.702;2022-08-11T18:10:51;9.05;;;2.33;;
43150;SDS011;28755;51.478;5.702;2022-08-11T18:13:38;6.13;;;1.90;;
43150;SDS011;28755;51.478;5.702;2022-08-11T18:16:24;3.35;;;1.88;;
43150;SDS011;28755;51.478;5.702;2022-08-11T18:19:09;6.82;;;1.98;;
43150;SDS011;28755;51.478;5.702;2022-08-11T18:21:55;8.30;;;2.15;;
43150;SDS011;28755;51.478;5.702;2022-08-11T18:24:46;5.90;;;1.88;;
43150;SDS011;28755;51.478;5.702;2022-08-11T18:27:34;8.18;;;2.00;;
43150;SDS011;28755;51.478;5.702;2022-08-11T18:30:21;7.07;;;1.83;;
43150;SDS011;28755;51.478;5.702;2022-08-11T18:33:06;6.68;;;2.17;;
43150;SDS011;28755;51.478;5.702;2022-08-11T18:35:55;6.07;;;2.00;;
43150;SDS011;28755;51.478;5.702;2022-08-11T18:38:42;3.97;;;1.80;;
43150;SDS011;28755;51.478;5.702;2022-08-11T18:41:31;3.35;;;2.03;;
43150;SDS011;28755;51.478;5.702;2022-08-11T18:44:20;4.07;;;1.73;;
43150;SDS011;28755;51.478;5.702;2022-08-11T18:47:09;5.45;;;2.10;;
43150;SDS011;28755;51.478;5.702;2022-08-11T18:49:55;4.22;;;2.10;;
43150;SDS011;28755;51.478;5.702;2022-08-11T18:52:42;10.48;;;1.80;;
43150;SDS011;28755;51.478;5.702;2022-08-11T18:55:28;6.22;;;2.35;;
43150;SDS011;28755;51.478;5.702;2022-08-11T18:58:14;6.00;;;1.98;;
43150;SDS011;28755;51.478;5.702;2022-08-11T19:01:02;6.10;;;2.47;;
43150;SDS011;28755;51.478;5.702;2022-08-11T19:03:49;8.82;;;2.30;;
43150;SDS011;28755;51.478;5.702;2022-08-11T19:06:36;8.43;;;1.90;;
43150;SDS011;28755;51.478;5.702;2022-08-11T19:09:22;8.02;;;2.20;;
43150;SDS011;28755;51.478;5.702;2022-08-11T19:12:08;9.75;;;2.30;;
43150;SDS011;28755;51.478;5.702;2022-08-11T19:14:54;6.93;;;2.25;;
43150;SDS011;28755;51.478;5.702;2022-08-11T19:17:41;7.82;;;2.20;;
43150;SDS011;28755;51.478;5.702;2022-08-11T19:20:28;3.17;;;2.10;;
43150;SDS011;28755;51.478;5.702;2022-08-11T19:23:15;5.25;;;2.10;;
43150;SDS011;28755;51.478;5.702;2022-08-11T19:26:03;12.73;;;2.53;;
43150;SDS011;28755;51.478;5.702;2022-08-11T19:28:49;7.03;;;2.38;;
43150;SDS011;28755;51.478;5.702;2022-08-11T19:31:35;3.85;;;2.22;;
43150;SDS011;28755;51.478;5.702;2022-08-11T19:34:22;4.07;;;2.50;;
43150;SDS011;28755;51.478;5.702;2022-08-11T19:37:08;6.63;;;2.33;;
43150;SDS011;28755;51.478;5.702;2022-08-11T19:40:04;7.50;;;2.00;;
43150;SDS011;28755;51.478;5.702;2022-08-11T19:42:50;10.57;;;2.65;;
43150;SDS011;28755;51.478;5.702;2022-08-11T19:45:35;3.03;;;2.17;;
43150;SDS011;28755;51.478;5.702;2022-08-11T19:48:21;6.10;;;2.58;;
43150;SDS011;28755;51.478;5.702;2022-08-11T19:51:07;7.80;;;2.53;;
43150;SDS011;28755;51.478;5.702;2022-08-11T19:53:53;7.47;;;2.67;;